Time;durP1;ratioP1;P1;durP2;ratioP2;P2;SDS_P1;SDS_P2;PMS_P1;PMS_P2;Temp;Humidity;BMP_temperature;BMP_pressure;BME280_temperature;BME280_humidity;BME280_pressure;Samples;Min_cycle;Max_cycle;Signal;HPM_P1;HPM_P2
2022/11/18 00:02:13;;;;;;;13.48;5.75;;;;;;;;;;4911236;28;20467;-62
2022/11/18 00:04:38;;;;;;;14.82;5.50;;;;;;;;;;4910654;28;20447;-62
2022/11/18 00:07:03;;;;;;;22.15;6.43;;;;;;;;;;4912331;28;20049;-62
2022/11/18 00:09:29;;;;;;;19.60;6.22;;;;;;;;;;4911046;28;20073;-62
2022/11/18 00:14:39;;;;;;;20.42;6.57;;;;;;;;;;4912139;28;20471;-61
2022/11/18 00:17:05;;;;;;;14.27;6.53;;;;;;;;;;4910462;28;20509;-62
2022/11/18 00:19:37;;;;;;;15.75;6.80;;;;;;;;;;4910842;28;20422;-62
2022/11/18 00:22:05;;;;;;;15.20;6.18;;;;;;;;;;4912236;28;20378;-61
2022/11/18 00:24:30;;;;;;;16.90;6.75;;;;;;;;;;4912255;28;20426;-62
2022/11/18 00:26:56;;;;;;;18.58;6.80;;;;;;;;;;4910597;28;20434;-62
2022/11/18 00:29:22;;;;;;;14.93;5.93;;;;;;;;;;4911165;28;20434;-62
2022/11/18 00:31:48;;;;;;;17.00;6.18;;;;;;;;;;4910912;28;20512;-61
2022/11/18 00:34:16;;;;;;;15.30;5.65;;;;;;;;;;4910654;28;20434;-62
2022/11/18 00:36:43;;;;;;;13.73;6.43;;;;;;;;;;4912481;28;20430;-62
2022/11/18 00:39:11;;;;;;;15.98;6.28;;;;;;;;;;4910725;28;20497;-62
2022/11/18 00:44:20;;;;;;;13.70;5.90;;;;;;;;;;4915188;28;20496;-62
2022/11/18 00:46:46;;;;;;;15.20;6.38;;;;;;;;;;4914455;28;20423;-62
2022/11/18 00:49:11;;;;;;;18.25;6.45;;;;;;;;;;4914123;28;20357;-61
2022/11/18 00:51:37;;;;;;;16.98;5.68;;;;;;;;;;4914395;28;20424;-61
2022/11/18 00:54:03;;;;;;;14.75;6.22;;;;;;;;;;4914484;28;20110;-61
2022/11/18 00:56:29;;;;;;;12.20;5.75;;;;;;;;;;4914585;28;20366;-61
2022/11/18 00:58:54;;;;;;;12.80;5.28;;;;;;;;;;4914737;28;20465;-62
2022/11/18 01:01:20;;;;;;;15.05;5.63;;;;;;;;;;4899870;28;20442;-61
2022/11/18 01:03:46;;;;;;;12.27;5.95;;;;;;;;;;4895528;28;20170;-61
2022/11/18 01:06:11;;;;;;;11.57;5.55;;;;;;;;;;4896328;28;20114;-62
2022/11/18 01:08:37;;;;;;;13.20;5.68;;;;;;;;;;4894433;28;20031;-62
2022/11/18 01:13:51;;;;;;;12.63;5.20;;;;;;;;;;4895855;29;20504;-61
2022/11/18 01:16:20;;;;;;;17.27;5.43;;;;;;;;;;4895077;28;20457;-62
2022/11/18 01:18:45;;;;;;;12.07;4.82;;;;;;;;;;4895960;28;20365;-61
2022/11/18 01:21:11;;;;;;;10.18;4.63;;;;;;;;;;4895210;28;20402;-62
2022/11/18 01:23:36;;;;;;;10.55;4.55;;;;;;;;;;4894993;28;20342;-61
2022/11/18 01:26:09;;;;;;;9.63;5.10;;;;;;;;;;4895017;28;20441;-61
2022/11/18 01:28:34;;;;;;;9.10;4.45;;;;;;;;;;4894556;28;20035;-61
2022/11/18 01:31:18;;;;;;;11.32;4.60;;;;;;;;;;4894347;28;20508;-61
2022/11/18 01:33:45;;;;;;;12.10;4.60;;;;;;;;;;4894727;28;20427;-61
2022/11/18 01:36:26;;;;;;;10.70;4.28;;;;;;;;;;4894614;28;20390;-61
2022/11/18 01:38:53;;;;;;;12.02;4.28;;;;;;;;;;4894553;28;20414;-61
2022/11/18 01:41:22;;;;;;;11.13;4.45;;;;;;;;;;4894566;28;20350;-61
2022/11/18 01:44:00;;;;;;;7.80;4.35;;;;;;;;;;4895522;28;20310;-62
2022/11/18 01:46:28;;;;;;;10.55;4.50;;;;;;;;;;4894712;28;20434;-61
2022/11/18 01:49:10;;;;;;;11.20;5.07;;;;;;;;;;4896568;28;20051;-61
2022/11/18 01:51:45;;;;;;;13.40;4.43;;;;;;;;;;4893073;29;20463;-62
2022/11/18 01:54:19;;;;;;;11.25;5.10;;;;;;;;;;4892026;28;20518;-62
2022/11/18 01:56:51;;;;;;;10.15;4.40;;;;;;;;;;4894354;28;20082;-61
2022/11/18 01:59:24;;;;;;;12.85;5.03;;;;;;;;;;4893176;29;20498;-62
2022/11/18 02:01:50;;;;;;;9.18;4.35;;;;;;;;;;4894395;28;20358;-61
2022/11/18 02:04:16;;;;;;;13.55;5.35;;;;;;;;;;4894815;28;20393;-61
2022/11/18 02:06:43;;;;;;;11.55;5.05;;;;;;;;;;4894137;28;20031;-61
2022/11/18 02:09:09;;;;;;;11.10;5.10;;;;;;;;;;4893811;28;20434;-61
2022/11/18 02:11:50;;;;;;;9.52;4.47;;;;;;;;;;4893772;28;20446;-61
2022/11/18 02:14:20;;;;;;;13.38;5.03;;;;;;;;;;4894096;28;20374;-61
2022/11/18 02:17:01;;;;;;;14.32;4.47;;;;;;;;;;4894004;28;20524;-61
2022/11/18 02:19:45;;;;;;;9.93;4.85;;;;;;;;;;4892755;28;20489;-61
2022/11/18 02:23:11;;;;;;;10.65;4.18;;;;;;;;;;4893610;28;20354;-61
2022/11/18 02:25:46;;;;;;;8.95;4.00;;;;;;;;;;4893297;29;20362;-61
2022/11/18 02:28:55;;;;;;;9.35;4.80;;;;;;;;;;4893903;29;20450;-61
2022/11/18 02:31:46;;;;;;;;;;;;;;;;;;4893822;28;20334;-61
2022/11/18 02:34:53;;;;;;;9.95;3.78;;;;;;;;;;4896147;28;20369;-61
2022/11/18 02:37:28;;;;;;;8.15;3.60;;;;;;;;;;4894478;28;20145;-61
2022/11/18 02:40:00;;;;;;;6.68;3.42;;;;;;;;;;4893251;28;20553;-62
2022/11/18 02:42:28;;;;;;;8.05;3.65;;;;;;;;;;4891950;29;20377;-61
2022/11/18 02:45:01;;;;;;;10.05;3.88;;;;;;;;;;4892334;29;20422;-61
2022/11/18 02:47:29;;;;;;;7.10;3.75;;;;;;;;;;4891725;29;20094;-62
2022/11/18 02:50:00;;;;;;;10.10;4.22;;;;;;;;;;4892204;29;20528;-62
2022/11/18 02:52:27;;;;;;;8.80;3.80;;;;;;;;;;4891887;29;20565;-62
2022/11/18 02:54:53;;;;;;;7.28;3.40;;;;;;;;;;4892111;29;20024;-61
2022/11/18 02:57:20;;;;;;;7.43;3.50;;;;;;;;;;4891581;29;20438;-62
2022/11/18 02:59:45;;;;;;;7.43;4.15;;;;;;;;;;4891889;29;20098;-61
2022/11/18 03:02:17;;;;;;;6.53;3.55;;;;;;;;;;4893116;28;20035;-61
2022/11/18 03:04:46;;;;;;;5.90;3.45;;;;;;;;;;4893095;28;20409;-61
2022/11/18 03:07:36;;;;;;;9.45;3.85;;;;;;;;;;4891425;28;20323;-61
2022/11/18 03:10:02;;;;;;;7.88;4.18;;;;;;;;;;4891198;29;20414;-61
2022/11/18 03:12:48;;;;;;;8.10;3.40;;;;;;;;;;4892601;28;20549;-61
2022/11/18 03:15:40;;;;;;;8.95;3.50;;;;;;;;;;4891636;29;20435;-61
2022/11/18 03:18:21;;;;;;;5.32;2.90;;;;;;;;;;4891687;29;20469;-61
2022/11/18 03:20:54;;;;;;;7.18;3.45;;;;;;;;;;4892916;28;20509;-61
2022/11/18 03:23:35;;;;;;;8.70;3.38;;;;;;;;;;4892928;28;20039;-61
2022/11/18 03:26:15;;;;;;;6.85;3.40;;;;;;;;;;4891758;28;20422;-61
2022/11/18 03:28:57;;;;;;;8.60;4.05;;;;;;;;;;4891492;29;20378;-63
2022/11/18 03:31:52;;;;;;;9.43;3.55;;;;;;;;;;4892206;28;20336;-61
2022/11/18 03:34:34;;;;;;;6.93;3.55;;;;;;;;;;4891553;29;20342;-61
2022/11/18 03:37:02;;;;;;;7.47;3.50;;;;;;;;;;4892429;28;20343;-61
2022/11/18 03:39:30;;;;;;;5.20;2.88;;;;;;;;;;4891074;29;20607;-61
2022/11/18 03:42:15;;;;;;;7.88;3.30;;;;;;;;;;4891078;29;20418;-61
2022/11/18 03:44:53;;;;;;;6.18;2.95;;;;;;;;;;4892378;28;20039;-61
2022/11/18 03:47:42;;;;;;;7.18;3.15;;;;;;;;;;4891464;29;20121;-61
2022/11/18 03:50:30;;;;;;;7.90;3.67;;;;;;;;;;4891147;29;20354;-61
2022/11/18 03:52:58;;;;;;;7.93;3.70;;;;;;;;;;4891083;29;20197;-61
2022/11/18 03:55:31;;;;;;;8.45;3.40;;;;;;;;;;4893807;28;20466;-61
2022/11/18 03:58:12;;;;;;;5.30;3.22;;;;;;;;;;4892179;28;20118;-61
2022/11/18 04:00:42;;;;;;;5.38;3.10;;;;;;;;;;4890795;29;20343;-61
2022/11/18 04:03:09;;;;;;;7.55;3.58;;;;;;;;;;4890507;29;20454;-61
2022/11/18 04:05:40;;;;;;;5.68;2.80;;;;;;;;;;4892162;28;20346;-62
2022/11/18 04:08:16;;;;;;;7.43;3.67;;;;;;;;;;4892171;28;20333;-61
2022/11/18 04:10:57;;;;;;;7.15;3.33;;;;;;;;;;4892256;28;20459;-62
2022/11/18 04:13:31;;;;;;;4.47;2.45;;;;;;;;;;4890475;29;20508;-61
2022/11/18 04:15:57;;;;;;;6.15;3.10;;;;;;;;;;4892083;28;20375;-61
2022/11/18 04:18:22;;;;;;;5.80;3.33;;;;;;;;;;4891580;28;20312;-61
2022/11/18 04:20:48;;;;;;;7.82;3.75;;;;;;;;;;4892244;28;20416;-61
2022/11/18 04:23:13;;;;;;;6.65;3.08;;;;;;;;;;4891834;28;20384;-61
2022/11/18 04:25:39;;;;;;;4.13;2.58;;;;;;;;;;4892543;28;20370;-61
2022/11/18 04:28:04;;;;;;;5.15;2.78;;;;;;;;;;4892033;28;20023;-61
2022/11/18 04:30:31;;;;;;;6.38;2.90;;;;;;;;;;4892470;28;20381;-61
2022/11/18 04:32:57;;;;;;;4.60;2.53;;;;;;;;;;4891782;28;20443;-61
2022/11/18 04:35:23;;;;;;;5.47;3.20;;;;;;;;;;4891754;28;20354;-61
2022/11/18 04:37:48;;;;;;;6.70;3.60;;;;;;;;;;4891457;28;20075;-61
2022/11/18 04:40:14;;;;;;;5.68;2.90;;;;;;;;;;4892100;28;20027;-61
2022/11/18 04:42:39;;;;;;;6.22;3.40;;;;;;;;;;4891500;28;20031;-61
2022/11/18 04:45:06;;;;;;;5.97;3.10;;;;;;;;;;4891331;28;20398;-61
2022/11/18 04:47:31;;;;;;;6.88;3.20;;;;;;;;;;4891835;28;20375;-61
2022/11/18 04:49:56;;;;;;;3.88;2.67;;;;;;;;;;4893333;28;20465;-61
2022/11/18 04:52:22;;;;;;;5.13;2.90;;;;;;;;;;4891498;28;20434;-61
2022/11/18 04:54:47;;;;;;;6.32;3.22;;;;;;;;;;4891692;28;20435;-61
2022/11/18 04:57:13;;;;;;;5.25;2.75;;;;;;;;;;4891557;28;20417;-62
2022/11/18 04:59:39;;;;;;;7.13;3.83;;;;;;;;;;4891473;28;20442;-62
2022/11/18 05:02:04;;;;;;;8.18;3.63;;;;;;;;;;4892195;28;20098;-61
2022/11/18 05:04:33;;;;;;;7.72;3.55;;;;;;;;;;4839526;28;20457;-62
2022/11/18 05:07:00;;;;;;;6.32;3.05;;;;;;;;;;4841690;28;20535;-61
2022/11/18 05:09:27;;;;;;;8.85;3.78;;;;;;;;;;4913701;28;20450;-62
2022/11/18 05:14:37;;;;;;;8.38;3.28;;;;;;;;;;4911697;28;20524;-61
2022/11/18 05:17:05;;;;;;;7.13;3.63;;;;;;;;;;4910573;28;20370;-62
2022/11/18 05:19:31;;;;;;;8.00;4.07;;;;;;;;;;4910699;28;20342;-61
2022/11/18 05:21:57;;;;;;;6.30;3.40;;;;;;;;;;4910458;28;20027;-62
2022/11/18 05:24:23;;;;;;;6.68;3.75;;;;;;;;;;4909999;28;20325;-62
2022/11/18 05:26:53;;;;;;;7.25;3.72;;;;;;;;;;4910805;28;20330;-61
2022/11/18 05:29:19;;;;;;;6.50;3.00;;;;;;;;;;4910304;28;20426;-61
2022/11/18 05:31:46;;;;;;;7.65;3.92;;;;;;;;;;4915290;28;20392;-63
2022/11/18 05:34:12;;;;;;;6.32;3.42;;;;;;;;;;4915467;28;20039;-61
2022/11/18 05:36:38;;;;;;;6.78;3.80;;;;;;;;;;4913327;28;20311;-61
2022/11/18 05:39:04;;;;;;;7.20;3.58;;;;;;;;;;4914304;28;20321;-62
2022/11/18 05:44:24;;;;;;;7.78;3.40;;;;;;;;;;4911087;28;20038;-61
2022/11/18 05:46:49;;;;;;;6.65;3.53;;;;;;;;;;4913634;28;20430;-61
2022/11/18 05:49:15;;;;;;;6.95;3.78;;;;;;;;;;4913773;28;20474;-61
2022/11/18 05:51:40;;;;;;;7.00;3.78;;;;;;;;;;4848438;28;20334;-61
2022/11/18 05:54:12;;;;;;;6.55;3.97;;;;;;;;;;4929386;28;20453;-61
2022/11/18 05:56:43;;;;;;;7.15;3.33;;;;;;;;;;4912183;28;20063;-62
2022/11/18 05:59:09;;;;;;;8.00;4.00;;;;;;;;;;4913840;28;20527;-61
2022/11/18 06:01:47;;;;;;;5.90;3.70;;;;;;;;;;4913807;28;20477;-61
2022/11/18 06:04:23;;;;;;;8.80;4.10;;;;;;;;;;4819422;28;20483;-61
2022/11/18 06:06:52;;;;;;;7.18;3.90;;;;;;;;;;4905006;28;20150;-62
2022/11/18 06:09:23;;;;;;;8.23;4.22;;;;;;;;;;4912807;28;20047;-62
2022/11/18 06:11:55;;;;;;;5.90;3.67;;;;;;;;;;4912675;28;20034;-61
2022/11/18 06:14:47;;;;;;;7.75;3.92;;;;;;;;;;4911544;28;20030;-61
2022/11/18 06:17:23;;;;;;;8.85;4.07;;;;;;;;;;4912851;28;20480;-61
2022/11/18 06:19:48;;;;;;;8.35;3.63;;;;;;;;;;4911841;28;20452;-61
2022/11/18 06:22:14;;;;;;;7.03;3.65;;;;;;;;;;4913206;28;20417;-61
2022/11/18 06:24:41;;;;;;;7.20;4.03;;;;;;;;;;4912847;28;20394;-61
2022/11/18 06:27:07;;;;;;;6.38;3.88;;;;;;;;;;4913464;28;20452;-61
2022/11/18 06:29:33;;;;;;;5.32;3.15;;;;;;;;;;4913201;28;20327;-61
2022/11/18 06:31:58;;;;;;;6.25;3.58;;;;;;;;;;4911148;28;20341;-62
2022/11/18 06:34:24;;;;;;;7.07;3.78;;;;;;;;;;4912346;28;20109;-62
2022/11/18 06:36:49;;;;;;;7.95;4.15;;;;;;;;;;4912185;28;20323;-61
2022/11/18 06:39:15;;;;;;;7.47;3.58;;;;;;;;;;4912725;28;20488;-61
2022/11/18 06:41:40;;;;;;;6.28;2.83;;;;;;;;;;4912678;28;20346;-61
2022/11/18 06:44:06;;;;;;;6.72;3.72;;;;;;;;;;4913409;28;20522;-61
2022/11/18 06:49:15;;;;;;;4.53;3.10;;;;;;;;;;4913526;28;20398;-61
2022/11/18 06:51:41;;;;;;;5.90;3.45;;;;;;;;;;4912146;28;20459;-61
2022/11/18 06:54:06;;;;;;;6.30;3.40;;;;;;;;;;4912508;28;20026;-61
2022/11/18 06:56:33;;;;;;;5.95;3.17;;;;;;;;;;4912549;28;20546;-61
2022/11/18 06:58:59;;;;;;;6.70;2.75;;;;;;;;;;4912624;28;20469;-62
2022/11/18 07:01:28;;;;;;;8.30;3.25;;;;;;;;;;4912471;28;20523;-61
2022/11/18 07:03:56;;;;;;;5.65;3.33;;;;;;;;;;4911979;28;20465;-62
2022/11/18 07:06:25;;;;;;;6.90;3.22;;;;;;;;;;4911929;28;20427;-61
2022/11/18 07:08:51;;;;;;;;;;;;;;;;;;4912208;28;20381;-62
2022/11/18 07:11:20;;;;;;;6.05;3.22;;;;;;;;;;4912119;28;19914;-61
2022/11/18 07:13:47;;;;;;;9.60;4.22;;;;;;;;;;4913085;28;20334;-62
2022/11/18 07:16:22;;;;;;;5.75;2.92;;;;;;;;;;4912290;28;20049;-62
2022/11/18 07:18:49;;;;;;;5.32;2.95;;;;;;;;;;4912485;28;20469;-61
2022/11/18 07:21:21;;;;;;;4.80;3.05;;;;;;;;;;4868395;28;20373;-61
2022/11/18 07:23:47;;;;;;;4.15;2.80;;;;;;;;;;4912831;28;20416;-61
2022/11/18 07:26:13;;;;;;;8.68;3.70;;;;;;;;;;4911967;28;20442;-61
2022/11/18 07:28:39;;;;;;;7.85;3.67;;;;;;;;;;4911773;28;20449;-61
2022/11/18 07:31:13;;;;;;;6.38;3.35;;;;;;;;;;4911632;28;20425;-61
2022/11/18 07:33:40;;;;;;;6.95;3.15;;;;;;;;;;4911324;28;20438;-61
2022/11/18 07:36:12;;;;;;;8.48;3.47;;;;;;;;;;4913237;28;20354;-62
2022/11/18 07:38:38;;;;;;;6.38;3.78;;;;;;;;;;4911478;28;20512;-62
2022/11/18 07:41:09;;;;;;;6.95;3.17;;;;;;;;;;4911492;28;20310;-61
2022/11/18 07:43:35;;;;;;;7.20;3.25;;;;;;;;;;4911558;28;20031;-61
2022/11/18 07:46:39;;;;;;;5.80;2.65;;;;;;;;;;4912064;28;20027;-62
2022/11/18 07:49:07;;;;;;;5.85;3.35;;;;;;;;;;4909086;28;20349;-61
2022/11/18 07:51:37;;;;;;;9.43;3.45;;;;;;;;;;4908481;28;20504;-61
2022/11/18 07:54:12;;;;;;;7.38;3.90;;;;;;;;;;4909519;28;20394;-61
2022/11/18 07:56:37;;;;;;;7.40;3.20;;;;;;;;;;4910370;28;20039;-61
2022/11/18 07:59:03;;;;;;;8.98;3.90;;;;;;;;;;4909682;28;20453;-62
2022/11/18 08:01:32;;;;;;;8.35;3.55;;;;;;;;;;4911404;28;20407;-61
2022/11/18 08:04:05;;;;;;;6.15;3.08;;;;;;;;;;4911569;28;20039;-61
2022/11/18 08:06:33;;;;;;;6.20;3.75;;;;;;;;;;4910478;28;20351;-61
2022/11/18 08:13:49;;;;;;;7.18;3.90;;;;;;;;;;4910143;28;20187;-62
2022/11/18 08:16:20;;;;;;;6.88;3.80;;;;;;;;;;4910496;28;20133;-61
2022/11/18 08:18:46;;;;;;;6.72;3.17;;;;;;;;;;4910299;28;20533;-61
2022/11/18 08:21:14;;;;;;;8.82;3.83;;;;;;;;;;4910724;28;20457;-61
2022/11/18 08:23:39;;;;;;;6.63;3.88;;;;;;;;;;4910707;28;20393;-61
2022/11/18 08:26:14;;;;;;;7.43;3.55;;;;;;;;;;4910839;28;20026;-61
2022/11/18 08:28:42;;;;;;;9.65;4.22;;;;;;;;;;4910418;28;20410;-62
2022/11/18 08:31:13;;;;;;;7.63;3.53;;;;;;;;;;4910620;28;20426;-61
2022/11/18 08:33:39;;;;;;;7.53;3.92;;;;;;;;;;4911638;28;20413;-61
2022/11/18 08:36:11;;;;;;;9.68;4.68;;;;;;;;;;4910579;28;20389;-62
2022/11/18 08:38:37;;;;;;;12.38;4.38;;;;;;;;;;4910643;28;20472;-61
2022/11/18 08:41:13;;;;;;;11.27;5.20;;;;;;;;;;4842812;28;10003277;-63
2022/11/18 08:43:39;;;;;;;9.60;4.25;;;;;;;;;;4909381;28;20682;-61
2022/11/18 08:46:04;;;;;;;8.65;4.70;;;;;;;;;;4910491;28;20431;-61
2022/11/18 08:48:30;;;;;;;8.70;4.43;;;;;;;;;;4910395;28;20484;-61
2022/11/18 08:50:57;;;;;;;11.15;4.88;;;;;;;;;;4910899;28;20394;-61
2022/11/18 08:53:23;;;;;;;8.35;4.65;;;;;;;;;;4910520;28;20315;-61
2022/11/18 08:55:57;;;;;;;9.98;5.15;;;;;;;;;;4910735;28;20348;-61
2022/11/18 08:58:23;;;;;;;12.73;5.53;;;;;;;;;;4910727;28;20418;-61
2022/11/18 09:00:49;;;;;;;10.65;4.50;;;;;;;;;;4910646;28;20477;-61
2022/11/18 09:03:14;;;;;;;9.90;4.57;;;;;;;;;;4910589;28;20461;-62
2022/11/18 09:05:40;;;;;;;11.52;5.28;;;;;;;;;;4914119;28;20480;-61
2022/11/18 09:08:05;;;;;;;12.00;4.75;;;;;;;;;;4914064;28;20450;-61
2022/11/18 09:10:33;;;;;;;10.93;4.88;;;;;;;;;;4915441;28;20438;-61
2022/11/18 09:12:59;;;;;;;12.27;5.50;;;;;;;;;;4913872;28;20393;-62
2022/11/18 09:15:25;;;;;;;15.88;5.38;;;;;;;;;;4913703;28;20361;-61
2022/11/18 09:17:51;;;;;;;14.35;6.32;;;;;;;;;;4913624;28;20480;-61
2022/11/18 09:20:17;;;;;;;14.25;5.38;;;;;;;;;;4913764;28;20110;-62
2022/11/18 09:22:43;;;;;;;14.95;5.82;;;;;;;;;;4913490;28;20438;-61
2022/11/18 09:25:09;;;;;;;13.23;5.60;;;;;;;;;;4913799;28;20512;-61
2022/11/18 09:27:34;;;;;;;14.85;5.53;;;;;;;;;;4913585;28;20043;-61
2022/11/18 09:30:00;;;;;;;11.55;5.07;;;;;;;;;;4912216;28;20496;-62
2022/11/18 09:32:25;;;;;;;12.27;5.68;;;;;;;;;;4913630;28;20413;-61
2022/11/18 09:34:51;;;;;;;10.93;5.03;;;;;;;;;;4915146;28;20158;-61
2022/11/18 09:37:16;;;;;;;13.93;5.20;;;;;;;;;;4913280;28;20362;-61
2022/11/18 09:39:42;;;;;;;16.55;5.45;;;;;;;;;;4914423;28;20524;-61
2022/11/18 09:42:28;;;;;;;10.85;4.35;;;;;;;;;;4911976;28;20449;-61
2022/11/18 09:45:36;;;;;;;9.40;5.38;;;;;;;;;;4913534;28;20365;-61
2022/11/18 09:48:15;;;;;;;13.02;5.40;;;;;;;;;;4913263;28;20401;-61
2022/11/18 09:50:41;;;;;;;10.95;5.22;;;;;;;;;;4912078;28;20561;-62
2022/11/18 09:53:24;;;;;;;9.18;4.95;;;;;;;;;;4913167;28;20377;-61
2022/11/18 09:55:51;;;;;;;11.38;5.70;;;;;;;;;;4911695;28;20422;-61
2022/11/18 09:58:43;;;;;;;13.32;5.47;;;;;;;;;;4911420;28;20457;-61
2022/11/18 10:01:16;;;;;;;12.63;6.47;;;;;;;;;;4912824;28;20445;-61
2022/11/18 10:03:42;;;;;;;10.02;5.20;;;;;;;;;;4912657;28;20468;-61
2022/11/18 10:06:10;;;;;;;14.35;5.68;;;;;;;;;;4911973;28;20445;-62
2022/11/18 10:08:46;;;;;;;12.20;6.03;;;;;;;;;;4912767;28;20156;-61
2022/11/18 10:11:22;;;;;;;11.13;5.28;;;;;;;;;;4912120;28;20476;-61
2022/11/18 10:14:12;;;;;;;12.60;5.90;;;;;;;;;;4911274;28;20887;-61
2022/11/18 10:17:47;;;;;;;9.88;4.90;;;;;;;;;;4912449;28;20442;-61
2022/11/18 10:20:35;;;;;;;14.18;5.32;;;;;;;;;;4912257;28;20438;-61
2022/11/18 10:23:20;;;;;;;11.10;5.60;;;;;;;;;;4913008;28;20327;-62
2022/11/18 10:25:46;;;;;;;13.95;5.65;;;;;;;;;;4911013;28;20438;-61
2022/11/18 10:28:20;;;;;;;11.93;5.75;;;;;;;;;;4912160;28;20479;-61
2022/11/18 10:30:46;;;;;;;12.77;5.72;;;;;;;;;;4911074;28;20049;-61
2022/11/18 10:33:26;;;;;;;12.75;6.18;;;;;;;;;;4912777;28;20027;-61
2022/11/18 10:36:26;;;;;;;11.35;5.47;;;;;;;;;;4912755;28;20046;-62
2022/11/18 10:39:07;;;;;;;13.43;6.90;;;;;;;;;;4914187;28;20417;-61
2022/11/18 10:42:02;;;;;;;12.20;5.68;;;;;;;;;;4913075;28;20385;-61
2022/11/18 10:44:32;;;;;;;10.75;5.18;;;;;;;;;;4911269;28;20628;-61
2022/11/18 10:47:15;;;;;;;11.40;5.63;;;;;;;;;;4912468;28;20370;-61
2022/11/18 10:49:40;;;;;;;11.25;5.82;;;;;;;;;;4912841;28;20346;-61
2022/11/18 10:52:12;;;;;;;11.20;5.60;;;;;;;;;;4912307;28;20369;-61
2022/11/18 10:54:38;;;;;;;8.85;5.10;;;;;;;;;;4842233;28;20386;-61
2022/11/18 10:57:22;;;;;;;11.23;5.00;;;;;;;;;;4893112;28;20374;-61
2022/11/18 10:59:54;;;;;;;11.18;5.57;;;;;;;;;;4893047;29;20494;-61
2022/11/18 11:02:33;;;;;;;9.13;5.28;;;;;;;;;;4894138;29;20374;-62
2022/11/18 11:05:14;;;;;;;11.80;5.80;;;;;;;;;;4894484;29;20458;-61
2022/11/18 11:07:40;;;;;;;11.45;5.53;;;;;;;;;;4893376;29;20452;-61
2022/11/18 11:10:08;;;;;;;11.88;5.03;;;;;;;;;;4891763;29;20438;-62
2022/11/18 11:12:39;;;;;;;10.70;5.68;;;;;;;;;;4892890;28;20516;-61
2022/11/18 11:15:12;;;;;;;10.27;4.78;;;;;;;;;;4892899;29;20362;-61
2022/11/18 11:20:44;;;;;;;8.25;4.95;;;;;;;;;;4892724;29;20381;-61
2022/11/18 11:23:13;;;;;;;9.60;5.30;;;;;;;;;;4892624;28;20375;-62
2022/11/18 11:25:47;;;;;;;9.52;5.07;;;;;;;;;;4892602;28;20493;-62
2022/11/18 11:28:49;;;;;;;12.15;6.05;;;;;;;;;;4892595;28;20066;-61
2022/11/18 11:31:43;;;;;;;10.05;4.93;;;;;;;;;;4892725;28;20031;-61
2022/11/18 11:34:27;;;;;;;10.00;5.45;;;;;;;;;;4891503;29;20446;-61
2022/11/18 11:37:30;;;;;;;13.10;5.60;;;;;;;;;;4893215;28;20394;-61
2022/11/18 11:40:31;;;;;;;10.05;5.03;;;;;;;;;;4906236;28;20497;-61
2022/11/18 11:43:42;;;;;;;10.80;5.00;;;;;;;;;;4891007;29;20426;-61
2022/11/18 11:46:32;;;;;;;11.38;5.70;;;;;;;;;;4892455;28;20438;-61
2022/11/18 11:49:23;;;;;;;9.55;5.18;;;;;;;;;;4892332;28;20331;-61
2022/11/18 11:52:19;;;;;;;8.80;4.88;;;;;;;;;;4891980;29;20448;-61
2022/11/18 11:55:07;;;;;;;11.30;5.45;;;;;;;;;;4892743;28;20397;-61
2022/11/18 11:58:04;;;;;;;10.77;5.32;;;;;;;;;;4892035;29;20462;-61
2022/11/18 12:00:39;;;;;;;10.55;5.40;;;;;;;;;;4891153;29;20323;-61
2022/11/18 12:03:36;;;;;;;9.50;4.90;;;;;;;;;;4892390;29;20488;-61
2022/11/18 12:06:02;;;;;;;9.98;5.07;;;;;;;;;;4893894;28;20458;-61
2022/11/18 12:08:31;;;;;;;9.73;5.43;;;;;;;;;;4892445;29;20406;-61
2022/11/18 12:11:10;;;;;;;11.70;6.43;;;;;;;;;;4891791;29;20517;-61
2022/11/18 12:13:57;;;;;;;11.90;6.07;;;;;;;;;;4892139;28;20470;-61
2022/11/18 12:16:28;;;;;;;11.82;6.35;;;;;;;;;;4892023;29;20482;-61
2022/11/18 12:19:10;;;;;;;12.23;5.53;;;;;;;;;;4891672;29;20446;-61
2022/11/18 12:21:45;;;;;;;10.45;5.90;;;;;;;;;;4891988;29;20143;-61
2022/11/18 12:24:16;;;;;;;14.57;6.55;;;;;;;;;;4891836;28;20227;-61
2022/11/18 12:26:44;;;;;;;13.30;5.65;;;;;;;;;;4892312;28;20063;-61
2022/11/18 12:29:24;;;;;;;11.88;6.90;;;;;;;;;;4892331;28;20338;-62
2022/11/18 12:32:03;;;;;;;15.65;6.72;;;;;;;;;;4891758;28;20513;-61
2022/11/18 12:34:38;;;;;;;10.63;6.28;;;;;;;;;;4891058;29;20422;-61
2022/11/18 12:37:25;;;;;;;12.95;6.10;;;;;;;;;;4892544;28;20458;-61
2022/11/18 12:39:59;;;;;;;13.50;6.70;;;;;;;;;;4895159;28;20095;-61
2022/11/18 12:45:39;;;;;;;15.63;6.85;;;;;;;;;;4896416;29;20102;-61
2022/11/18 12:48:32;;;;;;;14.27;6.88;;;;;;;;;;4895818;28;20402;-61
2022/11/18 12:51:02;;;;;;;16.52;8.93;;;;;;;;;;4895852;28;20457;-61
2022/11/18 12:53:43;;;;;;;13.93;7.05;;;;;;;;;;4894811;29;20414;-61
2022/11/18 12:56:33;;;;;;;18.25;6.68;;;;;;;;;;4895167;28;20513;-61
2022/11/18 12:59:00;;;;;;;16.08;7.78;;;;;;;;;;4894294;28;20488;-61
2022/11/18 13:01:35;;;;;;;13.27;6.65;;;;;;;;;;4895201;28;20027;-61
2022/11/18 13:04:16;;;;;;;15.02;6.93;;;;;;;;;;4893836;29;20027;-61
2022/11/18 13:06:43;;;;;;;14.02;7.00;;;;;;;;;;4893732;28;20395;-62
2022/11/18 13:09:18;;;;;;;13.80;6.32;;;;;;;;;;4893524;29;20436;-61
2022/11/18 13:11:57;;;;;;;14.90;7.32;;;;;;;;;;4894947;29;20035;-61
2022/11/18 13:17:51;;;;;;;10.35;6.47;;;;;;;;;;4895780;29;20465;-65
2022/11/18 13:20:34;;;;;;;15.02;6.70;;;;;;;;;;4892676;29;20458;-61
2022/11/18 13:26:47;;;;;;;15.32;7.25;;;;;;;;;;4897001;29;20421;-61
2022/11/18 13:30:10;;;;;;;12.50;7.13;;;;;;;;;;4881138;29;20362;-61
2022/11/18 13:32:44;;;;;;;12.77;6.78;;;;;;;;;;4887082;28;20518;-62
2022/11/18 13:35:22;;;;;;;13.85;7.00;;;;;;;;;;4894529;29;20509;-61
2022/11/18 13:38:00;;;;;;;11.63;6.95;;;;;;;;;;4908697;28;20470;-61
2022/11/18 13:40:38;;;;;;;16.45;7.03;;;;;;;;;;4894725;29;20458;-61
2022/11/18 13:43:04;;;;;;;16.65;7.43;;;;;;;;;;4893107;29;20435;-61
2022/11/18 13:45:32;;;;;;;11.27;6.38;;;;;;;;;;4894458;29;20442;-61
2022/11/18 13:48:11;;;;;;;14.48;6.95;;;;;;;;;;4894133;29;20375;-61
2022/11/18 13:50:50;;;;;;;11.82;6.97;;;;;;;;;;4891848;28;20503;-61
2022/11/18 13:53:31;;;;;;;12.68;6.85;;;;;;;;;;4894493;28;20058;-61
2022/11/18 13:56:26;;;;;;;12.98;6.72;;;;;;;;;;4893397;29;20430;-61
2022/11/18 13:58:55;;;;;;;10.90;6.70;;;;;;;;;;4894051;28;20473;-61
2022/11/18 14:01:31;;;;;;;12.95;6.28;;;;;;;;;;4892741;28;20023;-61
2022/11/18 14:04:01;;;;;;;11.90;6.78;;;;;;;;;;4892865;29;20347;-61
2022/11/18 14:06:39;;;;;;;14.45;7.40;;;;;;;;;;4894228;28;20490;-61
2022/11/18 14:09:17;;;;;;;15.55;7.07;;;;;;;;;;4893625;29;20414;-61
2022/11/18 14:11:56;;;;;;;15.55;8.18;;;;;;;;;;4893667;28;20367;-61
2022/11/18 14:14:40;;;;;;;14.68;7.65;;;;;;;;;;4893868;28;20414;-61
2022/11/18 14:17:26;;;;;;;14.98;7.80;;;;;;;;;;4894354;29;20406;-61
2022/11/18 14:19:58;;;;;;;13.98;7.15;;;;;;;;;;4892278;28;20442;-61
2022/11/18 14:22:33;;;;;;;15.38;7.22;;;;;;;;;;4894129;28;20426;-64
2022/11/18 14:25:22;;;;;;;11.18;6.40;;;;;;;;;;4893830;29;20098;-61
2022/11/18 14:27:51;;;;;;;11.38;7.18;;;;;;;;;;4894231;29;20450;-62
2022/11/18 14:30:26;;;;;;;;;;;;;;;;;;4894370;29;20063;-61
2022/11/18 14:33:11;;;;;;;11.90;6.57;;;;;;;;;;4893447;28;20015;-61
2022/11/18 14:35:38;;;;;;;11.45;6.65;;;;;;;;;;4894160;28;20513;-61
2022/11/18 14:38:28;;;;;;;10.82;6.88;;;;;;;;;;4892309;28;20457;-61
2022/11/18 14:41:00;;;;;;;12.73;6.20;;;;;;;;;;4893608;28;20035;-61
2022/11/18 14:43:26;;;;;;;14.43;7.82;;;;;;;;;;4893574;29;20091;-61
2022/11/18 14:45:59;;;;;;;16.67;7.60;;;;;;;;;;4893399;29;20395;-61
2022/11/18 14:48:26;;;;;;;15.25;7.55;;;;;;;;;;4827355;28;20489;-61
2022/11/18 14:50:52;;;;;;;12.27;7.22;;;;;;;;;;4902499;28;20327;-61
2022/11/18 14:53:19;;;;;;;12.35;7.10;;;;;;;;;;4893719;28;20358;-61
2022/11/18 14:55:49;;;;;;;11.75;7.30;;;;;;;;;;4893431;29;20457;-61
2022/11/18 14:58:15;;;;;;;10.45;6.45;;;;;;;;;;4893857;29;20342;-61
2022/11/18 15:00:43;;;;;;;14.18;7.70;;;;;;;;;;4893563;28;20316;-61
2022/11/18 15:03:09;;;;;;;16.33;6.70;;;;;;;;;;4892444;28;20438;-61
2022/11/18 15:05:34;;;;;;;13.68;6.78;;;;;;;;;;4832814;28;20458;-61
2022/11/18 15:08:00;;;;;;;12.05;6.63;;;;;;;;;;4893251;28;20422;-61
2022/11/18 15:10:25;;;;;;;12.90;6.20;;;;;;;;;;4893319;29;20562;-62
2022/11/18 15:12:51;;;;;;;11.25;6.20;;;;;;;;;;4892459;28;20450;-61
2022/11/18 15:15:16;;;;;;;14.38;7.03;;;;;;;;;;4893844;29;20422;-61
2022/11/18 15:17:42;;;;;;;15.48;6.45;;;;;;;;;;4821849;28;20520;-61
2022/11/18 15:20:17;;;;;;;12.90;7.75;;;;;;;;;;4899758;28;20334;-61
2022/11/18 15:22:42;;;;;;;15.48;6.85;;;;;;;;;;4833371;28;20528;-61
2022/11/18 15:25:09;;;;;;;15.77;6.97;;;;;;;;;;4905263;28;20454;-61
2022/11/18 15:27:34;;;;;;;13.15;6.82;;;;;;;;;;4892426;28;20427;-61
2022/11/18 15:30:00;;;;;;;10.07;6.30;;;;;;;;;;4893554;29;20027;-62
2022/11/18 15:32:25;;;;;;;14.63;7.30;;;;;;;;;;4892485;29;20350;-61
2022/11/18 15:34:51;;;;;;;10.20;6.60;;;;;;;;;;4893295;28;20489;-62
2022/11/18 15:37:16;;;;;;;11.63;5.93;;;;;;;;;;4892850;28;20031;-62
2022/11/18 15:39:42;;;;;;;14.00;7.78;;;;;;;;;;4892559;28;20367;-61
2022/11/18 15:42:09;;;;;;;12.45;6.15;;;;;;;;;;4892556;28;20462;-62
2022/11/18 15:44:35;;;;;;;12.88;6.82;;;;;;;;;;4893434;29;20366;-62